Kesudalen, Sweden

2:44 AM CEST on April 28, 2017 (GMT +0200)
STORMHATTEN | | Change Station

Elev -10000 ft 62.87 °N, 12.71 °E | Updated 10 minutes ago

Partly Cloudy
Partly Cloudy
24.1 °F
Feels Like 24 °F
N
1.9
Wind Variable Wind from ENE
Gusts 9.3 mph

Today
High -- | Low -- °F
--% Chance of Precip.
Yesterday
High -- | Low -- °F
Precip. -- in
Pressure 29.98 in
Visibility 6.2 miles
Clouds Mostly Cloudy 4700 ft
Overcast 6000 ft
Windchill 24 °F
Dew Point 17 °F
Humidity 75%
Rainfall Not available.
Snow Depth Not available.
4:59 AM 9:16 PM
Waxing Crescent, 3% visible
METAR ENRO 280020Z AUTO VRB02KT 9999NDV BKN047/// OVC060/// M10/M11 Q1015
Pressure 29.98 in
Visibility 6.2 miles
Clouds Mostly Cloudy 4700 ft
Overcast 6000 ft
Windchill 24 °F
Dew Point 17 °F
Humidity 75%
Rainfall Not available.
Snow Depth Not available.
4:59 AM 9:16 PM
Waxing Crescent, 3% visible
METAR ENRO 280020Z AUTO VRB02KT 9999NDV BKN047/// OVC060/// M10/M11 Q1015

Get Severe Weather Alerts

Thanks for signing up!

Be on the lookout for a verification email in your inbox.

You'll start receiving the daily forecast at 8 AM.

×

10-Day Weather Forecast

×

Almanac

Astronomy

Apr. 28, 2017 Rise Set
Actual Time
Civil Twilight
Nautical Twilight
Astronomical Twilight
Moon
Length of Visible Light
Length of Day
Tomorrow will be .
, % of the Moon is Illuminated

Today's Extremes

Country Highs Country Lows

Community

WunderPhotos

WunderBlog® & News

Nearby

Air Quality

  Air Quality AQ Index Pollutant
Not available.

Snow Depth

Station Depth Elevation

Earthquake Activity

City Distance Mag. Time & Date
Minimum magnitude displayed is 2.5.

Coastal Water Temperatures

Place Temperature

Stations

Nearby Weather Stations

Station Location Temp. Windchill Dew Point Humidity Wind Precip. Elev Updated Type